Jamestown, Indiana
Current Conditions -  °F | °C
As of 9:53 AM on Monday 24 Nov 2014 (Local Time) from KEYE Reporting Station
Overcast Overcast  
Wind Chill: 36°   Ceiling: 1200
Heat Index: 43°   Visibility: 10mi
Dew Point: 39°   Wind: 15mph
Humidity: 86%   Direction: 260°W
Pressure: 29.35"   Gusts: 26mph
Location:  39.93°N, 86.63°W
Report Text: KEYE 241453Z AUTO 26013G23KT 10SM OVC012 06/04 A2935 RMK AO2 PK WND 27030/1421 SLP941 60005 T00610039 53058 $
Loading
Personal Weather Stations






























Interactive Weather Map New forecast layout! Learn more

10-Day Weather Forecast

Advertisements
Track Severe Weather on mobile